sensor_id;sensor_type;location;lat;lon;timestamp;temperature;humidity
18177;DHT22;9213;50.858;3.964;2023-04-06T00:00:35;13.70;36.70
18177;DHT22;9213;50.858;3.964;2023-04-06T00:03:02;13.70;37.40
18177;DHT22;9213;50.858;3.964;2023-04-06T00:05:29;13.70;36.80
18177;DHT22;9213;50.858;3.964;2023-04-06T00:07:57;13.70;36.90
18177;DHT22;9213;50.858;3.964;2023-04-06T00:10:24;13.70;37.00
18177;DHT22;9213;50.858;3.964;2023-04-06T00:12:54;13.60;37.00
18177;DHT22;9213;50.858;3.964;2023-04-06T00:15:22;13.60;37.00
18177;DHT22;9213;50.858;3.964;2023-04-06T00:17:49;13.60;36.80
18177;DHT22;9213;50.858;3.964;2023-04-06T00:20:17;13.60;37.10
18177;DHT22;9213;50.858;3.964;2023-04-06T00:22:44;13.60;37.00
18177;DHT22;9213;50.858;3.964;2023-04-06T00:25:11;13.50;37.00
18177;DHT22;9213;50.858;3.964;2023-04-06T00:27:40;13.50;37.00
18177;DHT22;9213;50.858;3.964;2023-04-06T00:30:10;13.50;37.20
18177;DHT22;9213;50.858;3.964;2023-04-06T00:32:37;13.50;37.40
18177;DHT22;9213;50.858;3.964;2023-04-06T00:35:05;13.40;37.30
18177;DHT22;9213;50.858;3.964;2023-04-06T00:37:32;13.40;37.20
18177;DHT22;9213;50.858;3.964;2023-04-06T00:39:59;13.30;37.30
18177;DHT22;9213;50.858;3.964;2023-04-06T00:42:26;13.30;37.30
18177;DHT22;9213;50.858;3.964;2023-04-06T00:44:54;13.20;37.50
18177;DHT22;9213;50.858;3.964;2023-04-06T00:47:23;13.20;37.50
18177;DHT22;9213;50.858;3.964;2023-04-06T00:49:50;13.20;37.60
18177;DHT22;9213;50.858;3.964;2023-04-06T00:52:18;13.10;37.50
18177;DHT22;9213;50.858;3.964;2023-04-06T00:54:45;13.00;37.70
18177;DHT22;9213;50.858;3.964;2023-04-06T00:57:12;13.00;37.70
18177;DHT22;9213;50.858;3.964;2023-04-06T00:59:40;12.90;37.70
18177;DHT22;9213;50.858;3.964;2023-04-06T01:02:08;12.90;37.90
18177;DHT22;9213;50.858;3.964;2023-04-06T01:04:36;12.90;37.90
18177;DHT22;9213;50.858;3.964;2023-04-06T01:07:03;12.90;37.90
18177;DHT22;9213;50.858;3.964;2023-04-06T01:09:30;12.80;37.90
18177;DHT22;9213;50.858;3.964;2023-04-06T01:11:58;12.80;38.00
18177;DHT22;9213;50.858;3.964;2023-04-06T01:14:25;12.80;38.10
18177;DHT22;9213;50.858;3.964;2023-04-06T01:16:53;12.80;38.40
18177;DHT22;9213;50.858;3.964;2023-04-06T01:19:20;12.70;38.40
18177;DHT22;9213;50.858;3.964;2023-04-06T01:21:50;12.70;38.40
18177;DHT22;9213;50.858;3.964;2023-04-06T01:24:20;12.80;38.30
18177;DHT22;9213;50.858;3.964;2023-04-06T01:26:47;12.80;38.40
18177;DHT22;9213;50.858;3.964;2023-04-06T01:29:14;12.80;38.60
18177;DHT22;9213;50.858;3.964;2023-04-06T01:31:41;12.70;38.60
18177;DHT22;9213;50.858;3.964;2023-04-06T01:34:08;12.70;38.60
18177;DHT22;9213;50.858;3.964;2023-04-06T01:36:35;12.70;38.70
18177;DHT22;9213;50.858;3.964;2023-04-06T01:39:03;12.70;38.70
18177;DHT22;9213;50.858;3.964;2023-04-06T01:41:31;12.70;38.70
18177;DHT22;9213;50.858;3.964;2023-04-06T01:43:58;12.70;38.70
18177;DHT22;9213;50.858;3.964;2023-04-06T01:46:25;12.70;38.80
18177;DHT22;9213;50.858;3.964;2023-04-06T01:48:52;12.70;38.90
18177;DHT22;9213;50.858;3.964;2023-04-06T01:51:19;12.70;38.90
18177;DHT22;9213;50.858;3.964;2023-04-06T01:53:46;12.70;39.00
18177;DHT22;9213;50.858;3.964;2023-04-06T01:56:14;12.70;39.10
18177;DHT22;9213;50.858;3.964;2023-04-06T01:58:43;12.70;38.90
18177;DHT22;9213;50.858;3.964;2023-04-06T02:01:10;12.70;39.00
18177;DHT22;9213;50.858;3.964;2023-04-06T02:03:37;12.60;38.90
18177;DHT22;9213;50.858;3.964;2023-04-06T02:06:04;12.60;38.90
18177;DHT22;9213;50.858;3.964;2023-04-06T02:08:31;12.60;38.90
18177;DHT22;9213;50.858;3.964;2023-04-06T02:10:58;12.60;38.90
18177;DHT22;9213;50.858;3.964;2023-04-06T02:13:25;12.60;39.00
18177;DHT22;9213;50.858;3.964;2023-04-06T02:15:53;12.60;38.90
18177;DHT22;9213;50.858;3.964;2023-04-06T02:18:21;12.60;39.00
18177;DHT22;9213;50.858;3.964;2023-04-06T02:20:48;12.60;39.10
18177;DHT22;9213;50.858;3.964;2023-04-06T02:23:15;12.60;39.20
18177;DHT22;9213;50.858;3.964;2023-04-06T02:25:42;12.60;39.30
18177;DHT22;9213;50.858;3.964;2023-04-06T02:28:09;12.60;39.20
18177;DHT22;9213;50.858;3.964;2023-04-06T02:30:36;12.60;39.30
18177;DHT22;9213;50.858;3.964;2023-04-06T02:33:04;12.50;39.50
18177;DHT22;9213;50.858;3.964;2023-04-06T02:35:31;12.50;39.60
18177;DHT22;9213;50.858;3.964;2023-04-06T02:37:58;12.50;39.50
18177;DHT22;9213;50.858;3.964;2023-04-06T02:40:25;12.50;39.50
18177;DHT22;9213;50.858;3.964;2023-04-06T02:42:52;12.50;39.70
18177;DHT22;9213;50.858;3.964;2023-04-06T02:45:19;12.50;39.90
18177;DHT22;9213;50.858;3.964;2023-04-06T02:47:47;12.50;40.10
18177;DHT22;9213;50.858;3.964;2023-04-06T02:50:15;12.40;40.00
18177;DHT22;9213;50.858;3.964;2023-04-06T02:52:42;12.50;40.20
18177;DHT22;9213;50.858;3.964;2023-04-06T02:55:09;12.40;40.10
18177;DHT22;9213;50.858;3.964;2023-04-06T02:57:36;12.40;40.20
18177;DHT22;9213;50.858;3.964;2023-04-06T03:00:04;12.40;40.40
18177;DHT22;9213;50.858;3.964;2023-04-06T03:02:32;12.40;40.40
18177;DHT22;9213;50.858;3.964;2023-04-06T03:04:59;12.40;40.40
18177;DHT22;9213;50.858;3.964;2023-04-06T03:07:27;12.40;40.50
18177;DHT22;9213;50.858;3.964;2023-04-06T03:09:54;12.40;40.80
18177;DHT22;9213;50.858;3.964;2023-04-06T03:12:21;12.40;40.80
18177;DHT22;9213;50.858;3.964;2023-04-06T03:14:48;12.40;40.90
18177;DHT22;9213;50.858;3.964;2023-04-06T03:17:15;12.40;40.70
18177;DHT22;9213;50.858;3.964;2023-04-06T03:19:42;12.40;40.60
18177;DHT22;9213;50.858;3.964;2023-04-06T03:22:09;12.40;40.50
18177;DHT22;9213;50.858;3.964;2023-04-06T03:24:38;12.40;40.60
18177;DHT22;9213;50.858;3.964;2023-04-06T03:27:05;12.40;40.70
18177;DHT22;9213;50.858;3.964;2023-04-06T03:29:32;12.40;40.90
18177;DHT22;9213;50.858;3.964;2023-04-06T03:31:59;12.40;40.90
18177;DHT22;9213;50.858;3.964;2023-04-06T03:34:26;12.40;41.10
18177;DHT22;9213;50.858;3.964;2023-04-06T03:36:53;12.40;41.20
18177;DHT22;9213;50.858;3.964;2023-04-06T03:39:20;12.30;41.20
18177;DHT22;9213;50.858;3.964;2023-04-06T03:41:48;12.30;41.20
18177;DHT22;9213;50.858;3.964;2023-04-06T03:44:15;12.40;41.30
18177;DHT22;9213;50.858;3.964;2023-04-06T03:46:43;12.30;41.50
18177;DHT22;9213;50.858;3.964;2023-04-06T03:49:10;12.30;41.40
18177;DHT22;9213;50.858;3.964;2023-04-06T03:51:37;12.40;41.40
18177;DHT22;9213;50.858;3.964;2023-04-06T03:54:04;12.30;41.40
18177;DHT22;9213;50.858;3.964;2023-04-06T03:56:31;12.30;41.50
18177;DHT22;9213;50.858;3.964;2023-04-06T03:59:00;12.30;41.50
18177;DHT22;9213;50.858;3.964;2023-04-06T04:01:27;12.30;41.70
18177;DHT22;9213;50.858;3.964;2023-04-06T04:03:55;12.30;41.60
18177;DHT22;9213;50.858;3.964;2023-04-06T04:06:22;12.30;41.70
18177;DHT22;9213;50.858;3.964;2023-04-06T04:08:49;12.30;41.90
18177;DHT22;9213;50.858;3.964;2023-04-06T04:11:16;12.30;41.90
18177;DHT22;9213;50.858;3.964;2023-04-06T04:13:43;12.30;41.90
18177;DHT22;9213;50.858;3.964;2023-04-06T04:16:12;12.30;41.90
18177;DHT22;9213;50.858;3.964;2023-04-06T04:18:39;12.40;42.00
18177;DHT22;9213;50.858;3.964;2023-04-06T04:21:06;12.40;42.00
18177;DHT22;9213;50.858;3.964;2023-04-06T04:23:33;12.40;42.00
18177;DHT22;9213;50.858;3.964;2023-04-06T04:26:00;12.40;42.20
18177;DHT22;9213;50.858;3.964;2023-04-06T04:28:26;12.40;42.20
18177;DHT22;9213;50.858;3.964;2023-04-06T04:30:54;12.40;42.30
18177;DHT22;9213;50.858;3.964;2023-04-06T04:33:22;12.40;42.30
18177;DHT22;9213;50.858;3.964;2023-04-06T04:35:49;12.40;42.30
18177;DHT22;9213;50.858;3.964;2023-04-06T04:38:16;12.40;42.20
18177;DHT22;9213;50.858;3.964;2023-04-06T04:40:43;12.40;42.30
18177;DHT22;9213;50.858;3.964;2023-04-06T04:43:10;12.40;42.50
18177;DHT22;9213;50.858;3.964;2023-04-06T04:45:37;12.40;42.60
18177;DHT22;9213;50.858;3.964;2023-04-06T04:48:05;12.40;42.60
18177;DHT22;9213;50.858;3.964;2023-04-06T04:50:34;12.40;42.60
18177;DHT22;9213;50.858;3.964;2023-04-06T04:53:01;12.40;42.70
18177;DHT22;9213;50.858;3.964;2023-04-06T04:55:30;12.40;42.80
18177;DHT22;9213;50.858;3.964;2023-04-06T04:57:58;12.40;43.00
18177;DHT22;9213;50.858;3.964;2023-04-06T05:00:25;12.40;43.20
18177;DHT22;9213;50.858;3.964;2023-04-06T05:02:52;12.40;43.20
18177;DHT22;9213;50.858;3.964;2023-04-06T05:05:19;12.30;43.40
18177;DHT22;9213;50.858;3.964;2023-04-06T05:07:47;12.30;43.30
18177;DHT22;9213;50.858;3.964;2023-04-06T05:10:15;12.40;43.50
18177;DHT22;9213;50.858;3.964;2023-04-06T05:12:42;12.30;43.50
18177;DHT22;9213;50.858;3.964;2023-04-06T05:15:10;12.30;43.50
18177;DHT22;9213;50.858;3.964;2023-04-06T05:17:37;12.40;43.50
18177;DHT22;9213;50.858;3.964;2023-04-06T05:20:05;12.40;43.60
18177;DHT22;9213;50.858;3.964;2023-04-06T05:22:32;12.40;43.80
18177;DHT22;9213;50.858;3.964;2023-04-06T05:25:01;12.40;43.70
18177;DHT22;9213;50.858;3.964;2023-04-06T05:27:29;12.40;43.80
18177;DHT22;9213;50.858;3.964;2023-04-06T05:29:56;12.40;43.90
18177;DHT22;9213;50.858;3.964;2023-04-06T05:32:23;12.40;44.00
18177;DHT22;9213;50.858;3.964;2023-04-06T05:34:50;12.50;44.20
18177;DHT22;9213;50.858;3.964;2023-04-06T05:37:17;12.50;44.20
18177;DHT22;9213;50.858;3.964;2023-04-06T05:39:44;12.50;44.60
18177;DHT22;9213;50.858;3.964;2023-04-06T05:42:13;12.50;44.90
18177;DHT22;9213;50.858;3.964;2023-04-06T05:44:41;12.50;45.10
18177;DHT22;9213;50.858;3.964;2023-04-06T05:47:08;12.50;45.10
18177;DHT22;9213;50.858;3.964;2023-04-06T05:49:35;12.50;45.40
18177;DHT22;9213;50.858;3.964;2023-04-06T05:52:02;12.40;45.50
18177;DHT22;9213;50.858;3.964;2023-04-06T05:54:29;12.40;45.80
18177;DHT22;9213;50.858;3.964;2023-04-06T05:56:57;12.40;45.90
18177;DHT22;9213;50.858;3.964;2023-04-06T05:59:25;12.40;46.00
18177;DHT22;9213;50.858;3.964;2023-04-06T06:01:52;12.40;46.30
18177;DHT22;9213;50.858;3.964;2023-04-06T06:04:19;12.40;46.50
18177;DHT22;9213;50.858;3.964;2023-04-06T06:06:46;12.40;46.90
18177;DHT22;9213;50.858;3.964;2023-04-06T06:09:13;12.40;47.10
18177;DHT22;9213;50.858;3.964;2023-04-06T06:11:40;12.40;47.20
18177;DHT22;9213;50.858;3.964;2023-04-06T06:14:07;12.40;47.40
18177;DHT22;9213;50.858;3.964;2023-04-06T06:16:36;12.40;47.70
18177;DHT22;9213;50.858;3.964;2023-04-06T06:19:04;12.40;48.10
18177;DHT22;9213;50.858;3.964;2023-04-06T06:21:31;12.40;48.20
18177;DHT22;9213;50.858;3.964;2023-04-06T06:23:58;12.30;48.40
18177;DHT22;9213;50.858;3.964;2023-04-06T06:26:25;12.30;48.60
18177;DHT22;9213;50.858;3.964;2023-04-06T06:28:52;12.30;48.70
18177;DHT22;9213;50.858;3.964;2023-04-06T06:31:19;12.30;48.90
18177;DHT22;9213;50.858;3.964;2023-04-06T06:33:49;12.20;49.10
18177;DHT22;9213;50.858;3.964;2023-04-06T06:36:17;12.20;49.40
18177;DHT22;9213;50.858;3.964;2023-04-06T06:38:44;12.20;49.60
18177;DHT22;9213;50.858;3.964;2023-04-06T06:41:11;12.20;49.80
18177;DHT22;9213;50.858;3.964;2023-04-06T06:43:38;12.10;50.00
18177;DHT22;9213;50.858;3.964;2023-04-06T06:46:05;12.10;50.20
18177;DHT22;9213;50.858;3.964;2023-04-06T06:48:33;12.20;50.30
18177;DHT22;9213;50.858;3.964;2023-04-06T06:51:01;12.10;50.50
18177;DHT22;9213;50.858;3.964;2023-04-06T06:53:28;12.10;50.60
18177;DHT22;9213;50.858;3.964;2023-04-06T06:55:55;12.10;50.60
18177;DHT22;9213;50.858;3.964;2023-04-06T06:58:22;12.10;50.70
18177;DHT22;9213;50.858;3.964;2023-04-06T07:00:49;12.10;50.70
18177;DHT22;9213;50.858;3.964;2023-04-06T07:03:16;12.10;50.90
18177;DHT22;9213;50.858;3.964;2023-04-06T07:05:45;12.10;51.00
18177;DHT22;9213;50.858;3.964;2023-04-06T07:08:20;12.10;51.00
18177;DHT22;9213;50.858;3.964;2023-04-06T07:10:47;12.10;51.00
18177;DHT22;9213;50.858;3.964;2023-04-06T07:13:15;12.20;52.00
18177;DHT22;9213;50.858;3.964;2023-04-06T07:15:47;12.20;51.60
18177;DHT22;9213;50.858;3.964;2023-04-06T07:18:14;12.20;51.50
18177;DHT22;9213;50.858;3.964;2023-04-06T07:20:41;12.20;51.60
18177;DHT22;9213;50.858;3.964;2023-04-06T07:23:08;12.30;51.80
18177;DHT22;9213;50.858;3.964;2023-04-06T07:25:37;12.30;51.90
18177;DHT22;9213;50.858;3.964;2023-04-06T07:28:04;12.30;52.00
18177;DHT22;9213;50.858;3.964;2023-04-06T07:30:31;12.40;52.20
18177;DHT22;9213;50.858;3.964;2023-04-06T07:32:58;12.40;52.20
18177;DHT22;9213;50.858;3.964;2023-04-06T07:35:26;12.40;52.30
18177;DHT22;9213;50.858;3.964;2023-04-06T07:37:55;12.50;52.60
18177;DHT22;9213;50.858;3.964;2023-04-06T07:40:23;12.50;52.60
18177;DHT22;9213;50.858;3.964;2023-04-06T07:42:53;12.50;52.70
18177;DHT22;9213;50.858;3.964;2023-04-06T07:45:20;12.50;52.90
18177;DHT22;9213;50.858;3.964;2023-04-06T07:47:47;12.50;53.00
18177;DHT22;9213;50.858;3.964;2023-04-06T07:50:15;12.60;52.90
18177;DHT22;9213;50.858;3.964;2023-04-06T07:52:42;12.60;53.00
18177;DHT22;9213;50.858;3.964;2023-04-06T07:55:10;12.60;53.20
18177;DHT22;9213;50.858;3.964;2023-04-06T07:57:37;12.60;53.20
18177;DHT22;9213;50.858;3.964;2023-04-06T08:00:07;12.60;53.20
18177;DHT22;9213;50.858;3.964;2023-04-06T08:02:35;12.70;53.50
18177;DHT22;9213;50.858;3.964;2023-04-06T08:05:02;12.60;53.40
18177;DHT22;9213;50.858;3.964;2023-04-06T08:07:29;12.70;53.50
18177;DHT22;9213;50.858;3.964;2023-04-06T08:09:56;12.70;53.50
18177;DHT22;9213;50.858;3.964;2023-04-06T08:12:23;12.70;54.30
18177;DHT22;9213;50.858;3.964;2023-04-06T08:14:50;12.70;53.90
18177;DHT22;9213;50.858;3.964;2023-04-06T08:17:18;12.70;53.70
18177;DHT22;9213;50.858;3.964;2023-04-06T08:19:45;12.80;53.70
18177;DHT22;9213;50.858;3.964;2023-04-06T08:22:12;12.70;53.60
18177;DHT22;9213;50.858;3.964;2023-04-06T08:24:39;12.70;53.80
18177;DHT22;9213;50.858;3.964;2023-04-06T08:27:06;12.70;53.90
18177;DHT22;9213;50.858;3.964;2023-04-06T08:29:33;12.70;54.00
18177;DHT22;9213;50.858;3.964;2023-04-06T08:32:00;12.80;54.00
18177;DHT22;9213;50.858;3.964;2023-04-06T08:34:32;12.80;54.00
18177;DHT22;9213;50.858;3.964;2023-04-06T08:36:59;12.70;54.20
18177;DHT22;9213;50.858;3.964;2023-04-06T08:39:26;12.70;54.30
18177;DHT22;9213;50.858;3.964;2023-04-06T08:41:53;12.80;54.40
18177;DHT22;9213;50.858;3.964;2023-04-06T08:44:22;12.80;54.40
18177;DHT22;9213;50.858;3.964;2023-04-06T08:46:50;12.80;54.40
18177;DHT22;9213;50.858;3.964;2023-04-06T08:49:18;12.80;54.40
18177;DHT22;9213;50.858;3.964;2023-04-06T08:51:47;12.80;54.40
18177;DHT22;9213;50.858;3.964;2023-04-06T08:54:14;12.80;54.50
18177;DHT22;9213;50.858;3.964;2023-04-06T08:56:41;12.80;54.40
18177;DHT22;9213;50.858;3.964;2023-04-06T08:59:09;12.80;54.40
18177;DHT22;9213;50.858;3.964;2023-04-06T09:01:39;12.80;54.50
18177;DHT22;9213;50.858;3.964;2023-04-06T09:04:08;12.80;54.70
18177;DHT22;9213;50.858;3.964;2023-04-06T09:06:36;12.90;54.70
18177;DHT22;9213;50.858;3.964;2023-04-06T09:09:05;12.90;54.70
18177;DHT22;9213;50.858;3.964;2023-04-06T09:11:45;12.90;54.80
18177;DHT22;9213;50.858;3.964;2023-04-06T09:14:12;13.00;54.80
18177;DHT22;9213;50.858;3.964;2023-04-06T09:16:40;13.00;54.70
18177;DHT22;9213;50.858;3.964;2023-04-06T09:19:08;13.10;54.80
18177;DHT22;9213;50.858;3.964;2023-04-06T09:21:35;13.20;54.60
18177;DHT22;9213;50.858;3.964;2023-04-06T09:24:03;13.20;54.50
18177;DHT22;9213;50.858;3.964;2023-04-06T09:26:31;13.20;54.60
18177;DHT22;9213;50.858;3.964;2023-04-06T09:28:59;13.20;54.70
18177;DHT22;9213;50.858;3.964;2023-04-06T09:31:28;13.30;54.70
18177;DHT22;9213;50.858;3.964;2023-04-06T09:33:56;13.30;54.70
18177;DHT22;9213;50.858;3.964;2023-04-06T09:36:30;13.30;54.70
18177;DHT22;9213;50.858;3.964;2023-04-06T09:38:59;13.30;54.80
18177;DHT22;9213;50.858;3.964;2023-04-06T09:41:27;13.20;54.80
18177;DHT22;9213;50.858;3.964;2023-04-06T09:44:03;13.20;54.90
18177;DHT22;9213;50.858;3.964;2023-04-06T09:46:32;13.30;55.20
18177;DHT22;9213;50.858;3.964;2023-04-06T09:49:02;13.20;55.10
18177;DHT22;9213;50.858;3.964;2023-04-06T09:51:30;13.20;55.10
18177;DHT22;9213;50.858;3.964;2023-04-06T09:53:59;13.30;55.40
18177;DHT22;9213;50.858;3.964;2023-04-06T09:56:31;13.30;55.40
18177;DHT22;9213;50.858;3.964;2023-04-06T09:59:08;13.30;55.50
18177;DHT22;9213;50.858;3.964;2023-04-06T10:01:36;13.40;55.50
18177;DHT22;9213;50.858;3.964;2023-04-06T10:04:16;13.40;55.50
18177;DHT22;9213;50.858;3.964;2023-04-06T10:06:46;13.40;55.50
18177;DHT22;9213;50.858;3.964;2023-04-06T10:09:18;13.30;55.50
18177;DHT22;9213;50.858;3.964;2023-04-06T10:11:47;13.30;55.60
18177;DHT22;9213;50.858;3.964;2023-04-06T10:14:17;13.30;55.70
18177;DHT22;9213;50.858;3.964;2023-04-06T10:16:45;13.30;55.80
18177;DHT22;9213;50.858;3.964;2023-04-06T10:19:20;13.40;56.00
18177;DHT22;9213;50.858;3.964;2023-04-06T10:21:52;13.40;56.00
18177;DHT22;9213;50.858;3.964;2023-04-06T10:24:21;13.50;56.10
18177;DHT22;9213;50.858;3.964;2023-04-06T10:26:57;13.50;56.00
18177;DHT22;9213;50.858;3.964;2023-04-06T10:29:25;13.60;55.80
18177;DHT22;9213;50.858;3.964;2023-04-06T10:31:53;13.50;55.70
18177;DHT22;9213;50.858;3.964;2023-04-06T10:34:21;13.60;55.70
18177;DHT22;9213;50.858;3.964;2023-04-06T10:36:48;13.60;55.90
18177;DHT22;9213;50.858;3.964;2023-04-06T10:39:24;13.60;56.10
18177;DHT22;9213;50.858;3.964;2023-04-06T10:41:52;13.70;56.20
18177;DHT22;9213;50.858;3.964;2023-04-06T10:44:21;13.70;55.90
18177;DHT22;9213;50.858;3.964;2023-04-06T10:46:57;13.80;55.90
18177;DHT22;9213;50.858;3.964;2023-04-06T10:49:26;13.80;55.90
18177;DHT22;9213;50.858;3.964;2023-04-06T10:51:54;13.80;55.80
18177;DHT22;9213;50.858;3.964;2023-04-06T10:54:23;13.80;55.90
18177;DHT22;9213;50.858;3.964;2023-04-06T10:56:50;13.80;56.00
18177;DHT22;9213;50.858;3.964;2023-04-06T10:59:21;13.90;56.20
18177;DHT22;9213;50.858;3.964;2023-04-06T11:01:49;13.90;56.20
18177;DHT22;9213;50.858;3.964;2023-04-06T11:04:18;14.00;55.90
18177;DHT22;9213;50.858;3.964;2023-04-06T11:06:47;14.00;55.80
18177;DHT22;9213;50.858;3.964;2023-04-06T11:09:24;14.10;55.80
18177;DHT22;9213;50.858;3.964;2023-04-06T11:11:53;14.10;55.70
18177;DHT22;9213;50.858;3.964;2023-04-06T11:14:20;14.20;55.60
18177;DHT22;9213;50.858;3.964;2023-04-06T11:16:48;14.20;55.80
18177;DHT22;9213;50.858;3.964;2023-04-06T11:19:17;14.20;55.80
18177;DHT22;9213;50.858;3.964;2023-04-06T11:21:45;14.20;55.80
18177;DHT22;9213;50.858;3.964;2023-04-06T11:24:15;14.30;55.80
18177;DHT22;9213;50.858;3.964;2023-04-06T11:26:43;14.30;55.90
18177;DHT22;9213;50.858;3.964;2023-04-06T11:29:12;14.30;55.90
18177;DHT22;9213;50.858;3.964;2023-04-06T11:31:44;14.30;56.00
18177;DHT22;9213;50.858;3.964;2023-04-06T11:34:13;14.40;56.20
18177;DHT22;9213;50.858;3.964;2023-04-06T11:36:43;14.30;56.10
18177;DHT22;9213;50.858;3.964;2023-04-06T11:39:10;14.30;55.80
18177;DHT22;9213;50.858;3.964;2023-04-06T11:41:37;14.30;55.80
18177;DHT22;9213;50.858;3.964;2023-04-06T11:44:05;14.30;56.00
18177;DHT22;9213;50.858;3.964;2023-04-06T11:46:33;14.30;56.10
18177;DHT22;9213;50.858;3.964;2023-04-06T11:49:00;14.20;55.90
18177;DHT22;9213;50.858;3.964;2023-04-06T11:51:28;14.10;56.10
18177;DHT22;9213;50.858;3.964;2023-04-06T11:53:56;14.10;56.30
18177;DHT22;9213;50.858;3.964;2023-04-06T11:56:24;14.10;56.50
18177;DHT22;9213;50.858;3.964;2023-04-06T11:58:52;14.00;56.40
18177;DHT22;9213;50.858;3.964;2023-04-06T12:01:19;14.10;56.50
18177;DHT22;9213;50.858;3.964;2023-04-06T12:03:46;14.00;56.60
18177;DHT22;9213;50.858;3.964;2023-04-06T12:06:13;14.00;56.60
18177;DHT22;9213;50.858;3.964;2023-04-06T12:08:40;14.00;56.70
18177;DHT22;9213;50.858;3.964;2023-04-06T12:11:09;14.00;56.70
18177;DHT22;9213;50.858;3.964;2023-04-06T12:13:36;14.00;56.80
18177;DHT22;9213;50.858;3.964;2023-04-06T12:16:03;13.90;56.80
18177;DHT22;9213;50.858;3.964;2023-04-06T12:18:30;13.90;56.80
18177;DHT22;9213;50.858;3.964;2023-04-06T12:20:57;13.90;56.90
18177;DHT22;9213;50.858;3.964;2023-04-06T12:23:24;13.90;57.10
18177;DHT22;9213;50.858;3.964;2023-04-06T12:25:51;13.90;57.20
18177;DHT22;9213;50.858;3.964;2023-04-06T12:28:21;13.90;57.20
18177;DHT22;9213;50.858;3.964;2023-04-06T12:30:52;13.90;57.20
18177;DHT22;9213;50.858;3.964;2023-04-06T12:33:20;13.90;57.20
18177;DHT22;9213;50.858;3.964;2023-04-06T12:35:47;13.80;57.20
18177;DHT22;9213;50.858;3.964;2023-04-06T12:38:15;13.80;57.20
18177;DHT22;9213;50.858;3.964;2023-04-06T12:40:42;13.80;57.20
18177;DHT22;9213;50.858;3.964;2023-04-06T12:43:10;13.80;57.40
18177;DHT22;9213;50.858;3.964;2023-04-06T12:45:40;13.80;57.50
18177;DHT22;9213;50.858;3.964;2023-04-06T12:48:07;13.80;57.50
18177;DHT22;9213;50.858;3.964;2023-04-06T12:50:34;13.90;57.60
18177;DHT22;9213;50.858;3.964;2023-04-06T12:53:01;13.90;57.60
18177;DHT22;9213;50.858;3.964;2023-04-06T12:55:30;13.90;57.60
18177;DHT22;9213;50.858;3.964;2023-04-06T12:57:59;13.90;57.60
18177;DHT22;9213;50.858;3.964;2023-04-06T13:00:27;14.00;57.60
18177;DHT22;9213;50.858;3.964;2023-04-06T13:02:55;14.00;57.50
18177;DHT22;9213;50.858;3.964;2023-04-06T13:05:22;14.00;57.60
18177;DHT22;9213;50.858;3.964;2023-04-06T13:07:49;14.00;57.60
18177;DHT22;9213;50.858;3.964;2023-04-06T13:10:16;14.10;57.70
18177;DHT22;9213;50.858;3.964;2023-04-06T13:12:43;14.10;57.70
18177;DHT22;9213;50.858;3.964;2023-04-06T13:15:11;14.10;57.60
18177;DHT22;9213;50.858;3.964;2023-04-06T13:17:38;14.10;57.60
18177;DHT22;9213;50.858;3.964;2023-04-06T13:20:07;14.10;57.70
18177;DHT22;9213;50.858;3.964;2023-04-06T13:22:34;14.20;57.80
18177;DHT22;9213;50.858;3.964;2023-04-06T13:25:02;14.20;57.80
18177;DHT22;9213;50.858;3.964;2023-04-06T13:27:29;14.20;57.70
18177;DHT22;9213;50.858;3.964;2023-04-06T13:29:59;14.20;58.30
18177;DHT22;9213;50.858;3.964;2023-04-06T13:32:26;14.20;57.50
18177;DHT22;9213;50.858;3.964;2023-04-06T13:34:54;14.20;57.60
18177;DHT22;9213;50.858;3.964;2023-04-06T13:37:23;14.20;57.70
18177;DHT22;9213;50.858;3.964;2023-04-06T13:39:50;14.20;57.80
18177;DHT22;9213;50.858;3.964;2023-04-06T13:42:17;14.20;57.80
18177;DHT22;9213;50.858;3.964;2023-04-06T13:44:44;14.20;58.00
18177;DHT22;9213;50.858;3.964;2023-04-06T13:47:12;14.20;58.20
18177;DHT22;9213;50.858;3.964;2023-04-06T13:49:40;14.20;58.30
18177;DHT22;9213;50.858;3.964;2023-04-06T13:52:07;14.30;58.50
18177;DHT22;9213;50.858;3.964;2023-04-06T13:54:36;14.30;58.40
18177;DHT22;9213;50.858;3.964;2023-04-06T13:57:03;14.40;58.40
18177;DHT22;9213;50.858;3.964;2023-04-06T13:59:34;14.40;58.40
18177;DHT22;9213;50.858;3.964;2023-04-06T14:02:01;14.50;58.50
18177;DHT22;9213;50.858;3.964;2023-04-06T14:04:28;14.50;58.30
18177;DHT22;9213;50.858;3.964;2023-04-06T14:06:55;14.60;58.20
18177;DHT22;9213;50.858;3.964;2023-04-06T14:09:22;14.60;58.00
18177;DHT22;9213;50.858;3.964;2023-04-06T14:11:51;14.70;58.00
18177;DHT22;9213;50.858;3.964;2023-04-06T14:14:18;14.60;57.90
18177;DHT22;9213;50.858;3.964;2023-04-06T14:16:46;14.70;58.00
18177;DHT22;9213;50.858;3.964;2023-04-06T14:19:15;14.70;58.00
18177;DHT22;9213;50.858;3.964;2023-04-06T14:21:43;14.70;58.00
18177;DHT22;9213;50.858;3.964;2023-04-06T14:24:10;14.80;58.00
18177;DHT22;9213;50.858;3.964;2023-04-06T14:26:38;14.80;58.00
18177;DHT22;9213;50.858;3.964;2023-04-06T14:29:08;14.80;58.00
18177;DHT22;9213;50.858;3.964;2023-04-06T14:31:35;14.80;58.00
18177;DHT22;9213;50.858;3.964;2023-04-06T14:34:03;14.90;58.10
18177;DHT22;9213;50.858;3.964;2023-04-06T14:36:31;14.90;58.20
18177;DHT22;9213;50.858;3.964;2023-04-06T14:39:02;15.00;58.20
18177;DHT22;9213;50.858;3.964;2023-04-06T14:41:30;15.10;58.40
18177;DHT22;9213;50.858;3.964;2023-04-06T14:43:57;15.30;58.30
18177;DHT22;9213;50.858;3.964;2023-04-06T14:46:26;15.40;58.10
18177;DHT22;9213;50.858;3.964;2023-04-06T14:48:54;15.60;58.00
18177;DHT22;9213;50.858;3.964;2023-04-06T14:51:21;15.70;57.90
18177;DHT22;9213;50.858;3.964;2023-04-06T14:53:48;15.80;57.50
18177;DHT22;9213;50.858;3.964;2023-04-06T14:56:19;16.00;57.50
18177;DHT22;9213;50.858;3.964;2023-04-06T14:58:47;16.10;57.20
18177;DHT22;9213;50.858;3.964;2023-04-06T15:01:14;16.20;56.90
18177;DHT22;9213;50.858;3.964;2023-04-06T15:03:42;16.30;56.70
18177;DHT22;9213;50.858;3.964;2023-04-06T15:06:12;16.40;56.50
18177;DHT22;9213;50.858;3.964;2023-04-06T15:08:41;16.40;56.30
18177;DHT22;9213;50.858;3.964;2023-04-06T15:11:08;16.50;56.20
18177;DHT22;9213;50.858;3.964;2023-04-06T15:13:35;16.50;56.10
18177;DHT22;9213;50.858;3.964;2023-04-06T15:16:02;16.60;55.90
18177;DHT22;9213;50.858;3.964;2023-04-06T15:18:29;16.70;55.90
18177;DHT22;9213;50.858;3.964;2023-04-06T15:20:58;16.80;55.70
18177;DHT22;9213;50.858;3.964;2023-04-06T15:23:25;16.80;55.50
18177;DHT22;9213;50.858;3.964;2023-04-06T15:25:55;16.90;55.40
18177;DHT22;9213;50.858;3.964;2023-04-06T15:28:22;16.90;55.10
18177;DHT22;9213;50.858;3.964;2023-04-06T15:30:49;17.00;55.00
18177;DHT22;9213;50.858;3.964;2023-04-06T15:33:15;17.00;54.80
18177;DHT22;9213;50.858;3.964;2023-04-06T15:35:43;17.00;54.70
18177;DHT22;9213;50.858;3.964;2023-04-06T15:38:12;17.00;54.50
18177;DHT22;9213;50.858;3.964;2023-04-06T15:40:43;16.90;54.50
18177;DHT22;9213;50.858;3.964;2023-04-06T15:43:10;16.90;54.70
18177;DHT22;9213;50.858;3.964;2023-04-06T15:45:37;16.80;54.60
18177;DHT22;9213;50.858;3.964;2023-04-06T15:48:04;16.70;54.90